createdAt,value
2019-02-27T00:00:59.670Z,7.69
2019-02-27T00:01:59.644Z,7.52
2019-02-27T00:02:59.665Z,7.20
2019-02-27T00:03:59.847Z,7.12
2019-02-27T00:04:59.688Z,7.11
2019-02-27T00:05:59.708Z,7.14
2019-02-27T00:06:59.673Z,7.13
2019-02-27T00:07:59.692Z,7.40
2019-02-27T00:09:00.480Z,7.16
2019-02-27T00:09:59.756Z,6.78
2019-02-27T00:10:59.760Z,6.29
2019-02-27T00:11:59.727Z,6.24
2019-02-27T00:12:59.725Z,6.28
2019-02-27T00:13:59.532Z,6.57
2019-02-27T00:15:02.098Z,6.84
2019-02-27T00:15:59.554Z,6.64
2019-02-27T00:16:59.580Z,6.34
2019-02-27T00:17:59.627Z,6.74
2019-02-27T00:18:59.601Z,6.58
2019-02-27T00:20:04.089Z,6.56
2019-02-27T00:20:59.580Z,6.44
2019-02-27T00:21:59.595Z,6.64
2019-02-27T00:22:59.612Z,6.64
2019-02-27T00:23:59.623Z,6.68
2019-02-27T00:25:03.085Z,6.57
2019-02-27T00:25:59.619Z,6.93
2019-02-27T00:26:59.630Z,6.84
2019-02-27T00:27:59.637Z,6.90
2019-02-27T00:28:59.661Z,7.10
2019-02-27T00:30:04.510Z,6.93
2019-02-27T00:30:59.666Z,6.96
2019-02-27T00:31:59.661Z,6.91
2019-02-27T00:32:59.677Z,6.80
2019-02-27T00:34:00.435Z,6.65
2019-02-27T00:34:59.695Z,6.81
2019-02-27T00:35:59.913Z,6.83
2019-02-27T00:36:59.699Z,6.89
2019-02-27T00:37:59.696Z,6.81
2019-02-27T00:38:59.719Z,6.71
2019-02-27T00:39:59.925Z,6.70
2019-02-27T00:40:59.754Z,6.81
2019-02-27T00:41:59.764Z,6.58
2019-02-27T00:42:59.761Z,6.61
2019-02-27T00:44:01.364Z,6.73
2019-02-27T00:44:59.566Z,6.92
2019-02-27T00:45:59.566Z,6.85
2019-02-27T00:46:59.590Z,6.59
2019-02-27T00:47:59.601Z,6.51
2019-02-27T00:48:59.842Z,6.39
2019-02-27T00:49:59.588Z,6.72
2019-02-27T00:50:59.604Z,7.16
2019-02-27T00:51:59.601Z,7.09
2019-02-27T00:52:59.630Z,6.84
2019-02-27T00:53:59.649Z,6.70
2019-02-27T00:55:04.343Z,6.53
2019-02-27T00:55:59.657Z,6.77
2019-02-27T00:56:59.658Z,6.63
2019-02-27T00:57:59.649Z,6.58
2019-02-27T00:59:00.308Z,6.54
2019-02-27T00:59:59.691Z,6.42
2019-02-27T01:00:59.687Z,6.41
2019-02-27T01:01:59.710Z,6.24
2019-02-27T01:03:00.093Z,6.03
2019-02-27T01:04:02.262Z,5.91
2019-02-27T01:04:59.734Z,5.86
2019-02-27T01:05:59.926Z,6.23
2019-02-27T01:06:59.723Z,6.34
2019-02-27T01:07:59.762Z,6.21
2019-02-27T01:08:59.717Z,5.96
2019-02-27T01:09:59.752Z,6.16
2019-02-27T01:10:59.769Z,6.26
2019-02-27T01:11:59.802Z,6.16
2019-02-27T01:12:59.756Z,6.19
2019-02-27T01:14:03.742Z,6.67
2019-02-27T01:14:59.793Z,6.83
2019-02-27T01:15:59.573Z,6.52
2019-02-27T01:16:59.604Z,6.19
2019-02-27T01:17:59.619Z,5.84
2019-02-27T01:19:02.197Z,5.90
2019-02-27T01:19:59.609Z,5.84
2019-02-27T01:20:59.621Z,5.66
2019-02-27T01:21:59.619Z,5.57
2019-02-27T01:22:59.634Z,5.55
2019-02-27T01:23:59.677Z,5.51
2019-02-27T01:24:59.648Z,5.34
2019-02-27T01:25:59.649Z,5.36
2019-02-27T01:27:04.153Z,5.32
2019-02-27T01:28:01.612Z,5.34
2019-02-27T01:28:59.721Z,5.32
2019-02-27T01:29:59.692Z,5.21
2019-02-27T01:30:59.697Z,5.06
2019-02-27T01:31:59.696Z,5.38
2019-02-27T01:33:03.986Z,5.30
2019-02-27T01:33:59.727Z,5.29
2019-02-27T01:34:59.735Z,5.25
2019-02-27T01:35:59.736Z,5.17
2019-02-27T01:36:59.758Z,5.22
2019-02-27T01:37:59.746Z,5.28
2019-02-27T01:38:59.757Z,5.24
2019-02-27T01:39:59.782Z,5.21
2019-02-27T01:40:59.773Z,5.61
2019-02-27T01:41:59.770Z,5.71
2019-02-27T01:42:59.774Z,5.62
2019-02-27T01:43:59.830Z,5.53
2019-02-27T01:44:59.810Z,6.03
2019-02-27T01:45:59.662Z,5.82
2019-02-27T01:47:02.122Z,6.01
2019-02-27T01:47:59.625Z,5.92
2019-02-27T01:48:59.629Z,5.87
2019-02-27T01:49:59.650Z,5.95
2019-02-27T01:50:59.642Z,5.88
2019-02-27T01:52:02.072Z,5.75
2019-02-27T01:52:59.676Z,6.05
2019-02-27T01:53:59.673Z,5.99
2019-02-27T01:54:59.658Z,6.01
2019-02-27T01:55:59.661Z,6.02
2019-02-27T01:56:59.899Z,5.99
2019-02-27T01:57:59.695Z,5.98
2019-02-27T01:58:59.719Z,5.88
2019-02-27T01:59:59.689Z,5.75
2019-02-27T02:00:59.703Z,5.58
2019-02-27T02:02:01.086Z,5.49
2019-02-27T02:02:59.734Z,5.51
2019-02-27T02:03:59.744Z,5.55
2019-02-27T02:04:59.729Z,5.39
2019-02-27T02:05:59.854Z,5.50
2019-02-27T02:06:59.743Z,5.71
2019-02-27T02:07:59.766Z,5.71
2019-02-27T02:08:59.773Z,5.58
2019-02-27T02:09:59.802Z,5.43
2019-02-27T02:11:01.421Z,5.60
2019-02-27T02:11:59.794Z,5.62
2019-02-27T02:12:59.811Z,5.58
2019-02-27T02:13:59.814Z,5.56
2019-02-27T02:14:59.817Z,5.54
2019-02-27T02:16:00.872Z,5.67
2019-02-27T02:16:59.816Z,5.57
2019-02-27T02:17:59.623Z,5.36
2019-02-27T02:18:59.646Z,5.24
2019-02-27T02:19:59.649Z,5.05
2019-02-27T02:21:01.665Z,4.93
2019-02-27T02:21:59.679Z,4.95
2019-02-27T02:22:59.677Z,5.18
2019-02-27T02:23:59.681Z,5.26
2019-02-27T02:24:59.671Z,5.49
2019-02-27T02:26:01.188Z,5.51
2019-02-27T02:26:59.680Z,5.98
2019-02-27T02:27:59.718Z,5.81
2019-02-27T02:28:59.707Z,5.54
2019-02-27T02:29:59.712Z,5.10
2019-02-27T02:31:05.017Z,4.88
2019-02-27T02:31:59.759Z,4.72
2019-02-27T02:32:59.750Z,4.66
2019-02-27T02:34:05.070Z,4.74
2019-02-27T02:34:59.779Z,4.85
2019-02-27T02:35:59.759Z,4.63
2019-02-27T02:37:02.518Z,4.34
2019-02-27T02:37:59.782Z,4.02
2019-02-27T02:38:59.795Z,4.12
2019-02-27T02:39:59.794Z,4.18
2019-02-27T02:40:59.795Z,4.15
2019-02-27T02:41:59.809Z,4.03
2019-02-27T02:43:03.088Z,3.73
2019-02-27T02:43:59.818Z,3.62
2019-02-27T02:44:59.822Z,3.57
2019-02-27T02:45:59.858Z,3.49
2019-02-27T02:46:59.819Z,3.38
2019-02-27T02:47:59.622Z,3.23
2019-02-27T02:49:06.262Z,3.12
2019-02-27T02:49:59.684Z,3.39
2019-02-27T02:51:00.285Z,3.45
2019-02-27T02:52:04.531Z,3.35
2019-02-27T02:52:59.686Z,3.33
2019-02-27T02:54:01.872Z,3.83
2019-02-27T02:54:59.754Z,3.53
2019-02-27T02:55:59.732Z,3.39
2019-02-27T02:57:00.749Z,3.21
2019-02-27T02:57:59.709Z,3.03
2019-02-27T02:58:59.732Z,2.92
2019-02-27T03:00:00.981Z,2.82
2019-02-27T03:00:59.730Z,2.99
2019-02-27T03:01:59.739Z,3.10
2019-02-27T03:03:00.962Z,3.21
2019-02-27T03:03:59.746Z,3.24
2019-02-27T03:04:59.767Z,2.96
2019-02-27T03:06:00.063Z,2.78
2019-02-27T03:06:59.783Z,2.73
2019-02-27T03:07:59.803Z,2.65
2019-02-27T03:08:59.824Z,2.65
2019-02-27T03:09:59.793Z,2.69
2019-02-27T03:10:59.809Z,3.00
2019-02-27T03:11:59.829Z,3.05
2019-02-27T03:13:05.766Z,3.13
2019-02-27T03:13:59.840Z,3.33
2019-02-27T03:14:59.868Z,3.62
2019-02-27T03:16:04.123Z,3.63
2019-02-27T03:16:59.845Z,3.54
2019-02-27T03:17:59.657Z,3.62
2019-02-27T03:19:04.846Z,3.70
2019-02-27T03:19:59.697Z,3.95
2019-02-27T03:20:59.727Z,4.05
2019-02-27T03:22:03.042Z,4.22
2019-02-27T03:22:59.674Z,4.04
2019-02-27T03:23:59.693Z,4.10
2019-02-27T03:25:03.610Z,4.10
2019-02-27T03:25:59.727Z,3.97
2019-02-27T03:26:59.753Z,4.00
2019-02-27T03:28:04.713Z,4.26
2019-02-27T03:28:59.737Z,4.43
2019-02-27T03:29:59.733Z,4.86
2019-02-27T03:30:59.744Z,4.77
2019-02-27T03:32:00.957Z,4.67
2019-02-27T03:32:59.764Z,4.64
2019-02-27T03:34:05.497Z,4.76
2019-02-27T03:34:59.782Z,5.03
2019-02-27T03:35:59.865Z,5.23
2019-02-27T03:36:59.803Z,5.38
2019-02-27T03:37:59.832Z,5.35
2019-02-27T03:39:00.272Z,5.19
2019-02-27T03:39:59.818Z,5.26
2019-02-27T03:40:59.819Z,5.31
2019-02-27T03:41:59.845Z,5.55
2019-02-27T03:42:59.843Z,5.48
2019-02-27T03:43:59.877Z,5.41
2019-02-27T03:44:59.871Z,5.45
2019-02-27T03:46:02.992Z,5.46
2019-02-27T03:46:59.861Z,5.81
2019-02-27T03:47:59.881Z,5.85
2019-02-27T03:49:03.144Z,5.74
2019-02-27T03:49:59.709Z,5.80
2019-02-27T03:50:59.698Z,5.66
2019-02-27T03:52:00.504Z,5.80
2019-02-27T03:52:59.714Z,5.78
2019-02-27T03:53:59.718Z,5.65
2019-02-27T03:54:59.704Z,5.86
2019-02-27T03:55:59.721Z,5.91
2019-02-27T03:56:59.768Z,6.08
2019-02-27T03:57:59.750Z,5.91
2019-02-27T03:59:05.525Z,5.77
2019-02-27T03:59:59.750Z,5.68
2019-02-27T04:00:59.765Z,5.71
2019-02-27T04:02:05.844Z,5.68
2019-02-27T04:02:59.828Z,5.60
2019-02-27T04:03:59.790Z,5.54
2019-02-27T04:05:05.184Z,5.71
2019-02-27T04:05:59.799Z,5.49
2019-02-27T04:06:59.808Z,5.49
2019-02-27T04:07:59.850Z,5.48
2019-02-27T04:08:59.848Z,5.35
2019-02-27T04:09:59.834Z,5.30
2019-02-27T04:11:05.465Z,5.62
2019-02-27T04:11:59.851Z,5.74
2019-02-27T04:12:59.854Z,5.61
2019-02-27T04:14:05.017Z,5.51
2019-02-27T04:14:59.889Z,5.56
2019-02-27T04:15:59.879Z,5.54
2019-02-27T04:17:05.357Z,5.36
2019-02-27T04:17:59.897Z,5.23
2019-02-27T04:19:03.492Z,5.15
2019-02-27T04:19:59.723Z,5.22
2019-02-27T04:20:59.722Z,5.18
2019-02-27T04:22:01.120Z,5.10
2019-02-27T04:22:59.723Z,5.11
2019-02-27T04:23:59.722Z,5.55
2019-02-27T04:24:59.745Z,5.40
2019-02-27T04:26:05.281Z,5.17
2019-02-27T04:26:59.768Z,5.18
2019-02-27T04:27:59.771Z,5.20
2019-02-27T04:29:04.145Z,5.11
2019-02-27T04:29:59.797Z,5.14
2019-02-27T04:30:59.774Z,5.18
2019-02-27T04:31:59.807Z,5.17
2019-02-27T04:32:59.804Z,5.05
2019-02-27T04:34:00.262Z,5.14
2019-02-27T04:34:59.824Z,5.07
2019-02-27T04:35:59.805Z,4.96
2019-02-27T04:36:59.836Z,5.40
2019-02-27T04:37:59.837Z,5.29
2019-02-27T04:38:59.987Z,5.25
2019-02-27T04:39:59.857Z,5.28
2019-02-27T04:40:59.854Z,5.10
2019-02-27T04:41:59.857Z,5.01
2019-02-27T04:42:59.961Z,4.99
2019-02-27T04:43:59.883Z,4.83
2019-02-27T04:44:59.890Z,4.98
2019-02-27T04:45:59.890Z,4.62
2019-02-27T04:46:59.909Z,5.03
2019-02-27T04:47:59.914Z,4.90
2019-02-27T04:49:03.902Z,4.82
2019-02-27T04:49:59.724Z,4.69
2019-02-27T04:50:59.735Z,4.70
2019-02-27T04:51:59.706Z,4.85
2019-02-27T04:52:59.731Z,4.93
2019-02-27T04:53:59.724Z,4.79
2019-02-27T04:54:59.747Z,5.02
2019-02-27T04:55:59.780Z,5.14
2019-02-27T04:56:59.785Z,5.02
2019-02-27T04:57:59.784Z,4.90
2019-02-27T04:58:59.788Z,4.69
2019-02-27T04:59:59.780Z,4.34
2019-02-27T05:00:59.851Z,4.42
2019-02-27T05:01:59.827Z,4.63
2019-02-27T05:02:59.832Z,4.82
2019-02-27T05:04:01.539Z,4.87
2019-02-27T05:04:59.819Z,4.87
2019-02-27T05:05:59.832Z,4.49
2019-02-27T05:06:59.836Z,4.50
2019-02-27T05:07:59.857Z,4.38
2019-02-27T05:09:00.217Z,4.54
2019-02-27T05:09:59.879Z,4.28
2019-02-27T05:10:59.875Z,4.34
2019-02-27T05:11:59.879Z,4.45
2019-02-27T05:12:59.889Z,4.72
2019-02-27T05:13:59.899Z,5.04
2019-02-27T05:15:00.947Z,4.94
2019-02-27T05:15:59.898Z,4.76
2019-02-27T05:16:59.923Z,4.93
2019-02-27T05:17:59.927Z,4.70
2019-02-27T05:19:03.565Z,4.49
2019-02-27T05:19:59.940Z,4.21
2019-02-27T05:20:59.952Z,4.35
2019-02-27T05:22:01.246Z,4.40
2019-02-27T05:23:00.387Z,4.51
2019-02-27T05:23:59.760Z,4.54
2019-02-27T05:24:59.767Z,4.64
2019-02-27T05:25:59.779Z,4.43
2019-02-27T05:27:00.721Z,4.10
2019-02-27T05:28:01.537Z,4.54
2019-02-27T05:28:59.802Z,4.70
2019-02-27T05:30:00.103Z,4.83
2019-02-27T05:30:59.836Z,4.59
2019-02-27T05:31:59.834Z,5.15
2019-02-27T05:33:01.996Z,5.07
2019-02-27T05:33:59.897Z,4.83
2019-02-27T05:34:59.837Z,4.54
2019-02-27T05:35:59.857Z,4.34
2019-02-27T05:36:59.838Z,4.10
2019-02-27T05:37:59.875Z,3.79
2019-02-27T05:38:59.878Z,3.63
2019-02-27T05:40:00.230Z,3.38
2019-02-27T05:41:00.587Z,3.36
2019-02-27T05:42:00.916Z,4.73
2019-02-27T05:42:59.889Z,4.46
2019-02-27T05:43:59.915Z,4.92
2019-02-27T05:44:59.937Z,4.78
2019-02-27T05:46:02.727Z,4.74
2019-02-27T05:46:59.923Z,4.65
2019-02-27T05:47:59.926Z,4.56
2019-02-27T05:48:59.931Z,4.49
2019-02-27T05:50:00.671Z,4.56
2019-02-27T05:50:59.967Z,4.49
2019-02-27T05:51:59.760Z,4.65
2019-02-27T05:52:59.772Z,4.51
2019-02-27T05:53:59.774Z,4.28
2019-02-27T05:54:59.793Z,4.13
2019-02-27T05:55:59.772Z,4.40
2019-02-27T05:56:59.820Z,4.45
2019-02-27T05:57:59.810Z,4.39
2019-02-27T05:58:59.804Z,4.61
2019-02-27T06:00:02.184Z,4.63
2019-02-27T06:01:04.624Z,4.51
2019-02-27T06:01:59.845Z,4.41
2019-02-27T06:02:59.869Z,4.28
2019-02-27T06:03:59.849Z,4.30
2019-02-27T06:04:59.838Z,4.39
2019-02-27T06:05:59.850Z,4.52
2019-02-27T06:06:59.872Z,4.60
2019-02-27T06:08:02.040Z,4.49
2019-02-27T06:08:59.894Z,4.52
2019-02-27T06:09:59.944Z,4.72
2019-02-27T06:10:59.893Z,4.58
2019-02-27T06:11:59.907Z,4.80
2019-02-27T06:12:59.905Z,4.68
2019-02-27T06:13:59.928Z,4.60
2019-02-27T06:14:59.935Z,4.58
2019-02-27T06:16:02.781Z,4.65
2019-02-27T06:16:59.939Z,4.77
2019-02-27T06:17:59.942Z,4.64
2019-02-27T06:18:59.954Z,5.07
2019-02-27T06:19:59.982Z,4.83
2019-02-27T06:20:59.981Z,4.74
2019-02-27T06:21:59.992Z,4.73
2019-02-27T06:23:04.125Z,4.93
2019-02-27T06:23:59.789Z,5.07
2019-02-27T06:24:59.800Z,5.14
2019-02-27T06:26:00.179Z,5.03
2019-02-27T06:26:59.814Z,4.94
2019-02-27T06:27:59.817Z,5.18
2019-02-27T06:28:59.794Z,5.52
2019-02-27T06:29:59.867Z,5.29
2019-02-27T06:31:02.500Z,5.13
2019-02-27T06:31:59.865Z,4.97
2019-02-27T06:32:59.888Z,5.07
2019-02-27T06:33:59.875Z,5.36
2019-02-27T06:34:59.986Z,5.38
2019-02-27T06:35:59.872Z,5.25
2019-02-27T06:36:59.872Z,5.15
2019-02-27T06:37:59.917Z,5.12
2019-02-27T06:39:00.851Z,5.09
2019-02-27T06:39:59.889Z,5.10
2019-02-27T06:40:59.944Z,5.04
2019-02-27T06:41:59.892Z,4.97
2019-02-27T06:42:59.931Z,4.82
2019-02-27T06:44:01.484Z,4.86
2019-02-27T06:44:59.943Z,4.93
2019-02-27T06:45:59.940Z,5.43
2019-02-27T06:46:59.985Z,5.42
2019-02-27T06:47:59.959Z,5.45
2019-02-27T06:48:59.965Z,5.36
2019-02-27T06:49:59.996Z,5.21
2019-02-27T06:51:00.973Z,5.05
2019-02-27T06:51:59.991Z,4.96
2019-02-27T06:52:59.800Z,5.14
2019-02-27T06:53:59.799Z,5.23
2019-02-27T06:54:59.816Z,5.26
2019-02-27T06:56:02.943Z,5.51
2019-02-27T06:56:59.844Z,5.42
2019-02-27T06:57:59.837Z,5.73
2019-02-27T06:58:59.838Z,5.68
2019-02-27T07:00:01.988Z,5.75
2019-02-27T07:00:59.858Z,5.79
2019-02-27T07:01:59.874Z,5.81
2019-02-27T07:02:59.892Z,5.84
2019-02-27T07:04:02.259Z,5.96
2019-02-27T07:04:59.936Z,5.91
2019-02-27T07:05:59.875Z,5.88
2019-02-27T07:07:00.621Z,5.90
2019-02-27T07:08:02.210Z,6.02
2019-02-27T07:08:59.915Z,6.00
2019-02-27T07:09:59.913Z,5.99
2019-02-27T07:11:10.452Z,5.94
2019-02-27T07:11:59.936Z,6.07
2019-02-27T07:12:59.966Z,6.26
2019-02-27T07:13:59.992Z,6.61
2019-02-27T07:14:59.969Z,6.81
2019-02-27T07:15:59.970Z,6.98
2019-02-27T07:16:59.966Z,6.72
2019-02-27T07:17:59.986Z,6.98
2019-02-27T07:18:59.995Z,7.36
2019-02-27T07:19:59.995Z,7.42
2019-02-27T07:21:00.009Z,7.43
2019-02-27T07:22:00.002Z,7.28
2019-02-27T07:23:00.007Z,7.25
2019-02-27T07:23:59.805Z,7.45
2019-02-27T07:24:59.832Z,7.80
2019-02-27T07:25:59.833Z,7.68
2019-02-27T07:26:59.854Z,7.38
2019-02-27T07:27:59.856Z,7.20
2019-02-27T07:28:59.846Z,7.59
2019-02-27T07:29:59.847Z,7.30
2019-02-27T07:30:59.870Z,7.47
2019-02-27T07:31:59.889Z,7.35
2019-02-27T07:32:59.964Z,7.62
2019-02-27T07:33:59.906Z,7.80
2019-02-27T07:34:59.947Z,8.45
2019-02-27T07:36:03.163Z,8.50
2019-02-27T07:36:59.917Z,8.80
2019-02-27T07:37:59.930Z,8.09
2019-02-27T07:38:59.929Z,7.66
2019-02-27T07:39:59.938Z,7.54
2019-02-27T07:40:59.949Z,8.03
2019-02-27T07:41:59.970Z,8.27
2019-02-27T07:42:59.951Z,8.35
2019-02-27T07:43:59.988Z,9.14
2019-02-27T07:44:59.985Z,9.29
2019-02-27T07:45:59.988Z,8.69
2019-02-27T07:46:59.981Z,8.71
2019-02-27T07:48:00.000Z,8.51
2019-02-27T07:49:01.498Z,8.23
2019-02-27T07:50:02.671Z,8.35
2019-02-27T07:51:00.023Z,7.94
2019-02-27T07:52:00.011Z,8.64
2019-02-27T07:53:00.032Z,8.49
2019-02-27T07:54:00.025Z,8.98
2019-02-27T07:55:00.241Z,8.32
2019-02-27T07:55:59.875Z,8.30
2019-02-27T07:56:59.888Z,8.41
2019-02-27T07:57:59.863Z,8.88
2019-02-27T07:58:59.875Z,9.33
2019-02-27T07:59:59.853Z,9.47
2019-02-27T08:00:59.886Z,9.26
2019-02-27T08:02:02.306Z,9.19
2019-02-27T08:02:59.928Z,9.38
2019-02-27T08:03:59.918Z,9.03
2019-02-27T08:05:00.494Z,9.30
2019-02-27T08:06:02.360Z,9.12
2019-02-27T08:06:59.923Z,9.28
2019-02-27T08:07:59.940Z,8.82
2019-02-27T08:09:00.135Z,9.21
2019-02-27T08:10:03.593Z,9.41
2019-02-27T08:11:00.307Z,9.34
2019-02-27T08:12:00.162Z,9.36
2019-02-27T08:13:00.003Z,9.28
2019-02-27T08:14:00.771Z,9.87
2019-02-27T08:14:59.983Z,10.36
2019-02-27T08:15:59.990Z,9.80
2019-02-27T08:17:00.011Z,9.82
2019-02-27T08:18:00.050Z,9.95
2019-02-27T08:19:00.011Z,9.81
2019-02-27T08:20:00.042Z,9.66
2019-02-27T08:21:00.253Z,9.70
2019-02-27T08:22:00.025Z,9.90
2019-02-27T08:23:00.049Z,9.86
2019-02-27T08:24:06.473Z,9.76
2019-02-27T08:24:59.862Z,10.10
2019-02-27T08:26:04.755Z,10.14
2019-02-27T08:27:00.058Z,10.00
2019-02-27T08:27:59.855Z,10.18
2019-02-27T08:28:59.876Z,10.42
2019-02-27T08:30:00.004Z,10.88
2019-02-27T08:30:59.897Z,10.99
2019-02-27T08:32:01.206Z,10.96
2019-02-27T08:32:59.909Z,11.36
2019-02-27T08:34:00.123Z,10.95
2019-02-27T08:34:59.925Z,11.16
2019-02-27T08:35:59.926Z,11.35
2019-02-27T08:36:59.945Z,11.39
2019-02-27T08:38:02.821Z,11.28
2019-02-27T08:38:59.960Z,11.00
2019-02-27T08:39:59.952Z,10.58
2019-02-27T08:40:59.960Z,11.15
2019-02-27T08:42:03.303Z,11.12
2019-02-27T08:43:00.594Z,11.47
2019-02-27T08:44:00.028Z,11.69
2019-02-27T08:44:59.974Z,11.74
2019-02-27T08:46:02.478Z,11.59
2019-02-27T08:47:00.008Z,11.20
2019-02-27T08:48:00.016Z,11.41
2019-02-27T08:49:00.078Z,11.23
2019-02-27T08:50:00.011Z,11.14
2019-02-27T08:51:00.023Z,11.46
2019-02-27T08:52:00.056Z,10.78
2019-02-27T08:53:00.036Z,11.40
2019-02-27T08:54:00.091Z,11.87
2019-02-27T08:55:00.145Z,11.53
2019-02-27T08:56:00.093Z,11.19
2019-02-27T08:56:59.888Z,11.67
2019-02-27T08:57:59.887Z,12.19
2019-02-27T08:58:59.906Z,12.47
2019-02-27T08:59:59.910Z,11.92
2019-02-27T09:00:59.909Z,12.15
2019-02-27T09:01:59.919Z,11.60
2019-02-27T09:03:02.504Z,11.79
2019-02-27T09:03:59.932Z,10.57
2019-02-27T09:04:59.995Z,10.69
2019-02-27T09:05:59.942Z,11.40
2019-02-27T09:07:02.716Z,11.99
2019-02-27T09:07:59.941Z,11.15
2019-02-27T09:08:59.969Z,10.63
2019-02-27T09:10:00.000Z,10.42
2019-02-27T09:11:05.609Z,10.95
2019-02-27T09:11:59.997Z,11.61
2019-02-27T09:13:05.382Z,12.29
2019-02-27T09:14:00.015Z,12.68
2019-02-27T09:15:00.054Z,12.56
2019-02-27T09:16:00.012Z,12.44
2019-02-27T09:17:00.028Z,10.86
2019-02-27T09:18:01.911Z,11.50
2019-02-27T09:19:00.040Z,12.33
2019-02-27T09:20:00.068Z,12.19
2019-02-27T09:21:00.067Z,12.94
2019-02-27T09:22:02.354Z,11.94
2019-02-27T09:23:00.066Z,11.80
2019-02-27T09:24:00.453Z,11.83
2019-02-27T09:25:00.093Z,12.47
2019-02-27T09:26:02.466Z,12.44
2019-02-27T09:27:00.150Z,12.93
2019-02-27T09:27:59.941Z,13.37
2019-02-27T09:28:59.910Z,13.45
2019-02-27T09:29:59.919Z,12.44
2019-02-27T09:31:03.185Z,12.96
2019-02-27T09:31:59.976Z,14.16
2019-02-27T09:32:59.921Z,15.04
2019-02-27T09:33:59.939Z,13.33
2019-02-27T09:35:00.207Z,12.31
2019-02-27T09:35:59.966Z,13.22
2019-02-27T09:37:00.003Z,12.05
2019-02-27T09:37:59.974Z,13.48
2019-02-27T09:38:59.989Z,12.50
2019-02-27T09:40:04.786Z,11.46
2019-02-27T09:41:00.029Z,12.72
2019-02-27T09:42:00.038Z,12.46
2019-02-27T09:43:00.050Z,13.11
2019-02-27T09:44:01.318Z,13.41
2019-02-27T09:45:00.027Z,12.99
2019-02-27T09:46:00.018Z,12.64
2019-02-27T09:47:00.038Z,12.74
2019-02-27T09:48:03.055Z,13.25
2019-02-27T09:49:00.066Z,13.23
2019-02-27T09:50:00.107Z,12.47
2019-02-27T09:51:00.066Z,11.86
2019-02-27T09:52:00.077Z,12.52
2019-02-27T09:53:01.047Z,13.54
2019-02-27T09:54:00.081Z,14.21
2019-02-27T09:55:00.278Z,14.56
2019-02-27T09:56:00.109Z,13.50
2019-02-27T09:57:02.267Z,14.34
2019-02-27T09:58:00.132Z,14.00
2019-02-27T09:59:00.137Z,14.16
2019-02-27T09:59:59.970Z,12.93
2019-02-27T10:01:01.526Z,12.78
2019-02-27T10:01:59.946Z,12.94
2019-02-27T10:02:59.944Z,13.60
2019-02-27T10:03:59.960Z,13.77
2019-02-27T10:05:03.014Z,14.67
2019-02-27T10:05:59.978Z,15.23
2019-02-27T10:06:59.963Z,15.73
2019-02-27T10:08:00.008Z,15.81
2019-02-27T10:08:59.998Z,13.89
2019-02-27T10:10:00.033Z,13.80
2019-02-27T10:11:00.013Z,14.29
2019-02-27T10:12:00.020Z,13.74
2019-02-27T10:13:00.013Z,12.81
2019-02-27T10:14:00.040Z,13.82
2019-02-27T10:15:00.151Z,13.56
2019-02-27T10:16:01.380Z,14.47
2019-02-27T10:17:00.061Z,15.07
2019-02-27T10:18:00.064Z,13.72
2019-02-27T10:19:01.104Z,13.00
2019-02-27T10:20:02.448Z,12.86
2019-02-27T10:21:00.100Z,13.66
2019-02-27T10:22:00.097Z,13.62
2019-02-27T10:23:00.092Z,14.59
2019-02-27T10:24:04.434Z,15.72
2019-02-27T10:25:00.304Z,14.43
2019-02-27T10:26:00.144Z,13.58
2019-02-27T10:27:00.141Z,14.27
2019-02-27T10:28:03.264Z,14.58
2019-02-27T10:29:00.151Z,14.30
2019-02-27T10:30:00.225Z,13.79
2019-02-27T10:32:00.793Z,13.86
2019-02-27T10:32:59.958Z,14.84
2019-02-27T10:34:00.490Z,15.94
2019-02-27T10:34:59.989Z,16.16
2019-02-27T10:36:03.019Z,14.62
2019-02-27T10:37:00.108Z,14.02
2019-02-27T10:38:00.014Z,15.03
2019-02-27T10:39:02.075Z,14.41
2019-02-27T10:40:00.032Z,14.67
2019-02-27T10:41:00.033Z,15.28
2019-02-27T10:42:00.074Z,14.30
2019-02-27T10:43:00.099Z,14.69
2019-02-27T10:44:00.059Z,14.55
2019-02-27T10:45:00.050Z,14.53
2019-02-27T10:46:00.051Z,15.24
2019-02-27T10:47:00.744Z,15.56
2019-02-27T10:48:00.091Z,15.18
2019-02-27T10:49:00.083Z,15.08
2019-02-27T10:50:02.139Z,15.37
2019-02-27T10:51:00.232Z,13.50
2019-02-27T10:52:00.111Z,14.08
2019-02-27T10:53:00.102Z,13.25
2019-02-27T10:54:04.664Z,13.13
2019-02-27T10:55:00.346Z,13.73
2019-02-27T10:56:00.151Z,13.60
2019-02-27T10:57:00.170Z,13.81
2019-02-27T10:58:00.174Z,14.34
2019-02-27T10:59:00.181Z,15.54
2019-02-27T11:00:00.293Z,16.10
2019-02-27T11:01:01.181Z,14.39
2019-02-27T11:02:00.010Z,14.70
2019-02-27T11:02:59.979Z,15.35
2019-02-27T11:04:00.461Z,15.20
2019-02-27T11:04:59.991Z,15.78
2019-02-27T11:06:00.014Z,16.20
2019-02-27T11:07:00.015Z,17.14
2019-02-27T11:08:00.028Z,17.26
2019-02-27T11:09:04.477Z,16.43
2019-02-27T11:10:00.017Z,17.02
2019-02-27T11:11:00.036Z,16.93
2019-02-27T11:12:00.059Z,15.72
2019-02-27T11:13:00.093Z,15.30
2019-02-27T11:14:00.038Z,16.57
2019-02-27T11:15:00.113Z,17.42
2019-02-27T11:16:00.071Z,17.97
2019-02-27T11:17:02.568Z,16.58
2019-02-27T11:18:04.385Z,16.62
2019-02-27T11:19:00.143Z,17.11
2019-02-27T11:20:00.216Z,15.42
2019-02-27T11:21:00.117Z,15.52
2019-02-27T11:22:00.126Z,15.51
2019-02-27T11:23:00.105Z,15.41
2019-02-27T11:24:00.144Z,15.02
2019-02-27T11:25:00.255Z,15.10
2019-02-27T11:26:00.177Z,15.20
2019-02-27T11:27:00.161Z,15.61
2019-02-27T11:28:00.152Z,15.81
2019-02-27T11:29:00.182Z,15.75
2019-02-27T11:30:02.890Z,15.09
2019-02-27T11:31:00.192Z,15.43
2019-02-27T11:32:00.224Z,15.08
2019-02-27T11:33:00.183Z,16.23
2019-02-27T11:34:01.158Z,16.36
2019-02-27T11:35:00.026Z,17.16
2019-02-27T11:36:00.068Z,17.38
2019-02-27T11:37:00.015Z,17.00
2019-02-27T11:38:00.019Z,14.51
2019-02-27T11:39:00.062Z,13.70
2019-02-27T11:40:00.035Z,15.70
2019-02-27T11:41:00.056Z,16.63
2019-02-27T11:42:00.101Z,16.41
2019-02-27T11:43:01.127Z,15.99
2019-02-27T11:44:00.073Z,16.78
2019-02-27T11:45:00.164Z,17.13
2019-02-27T11:46:00.096Z,17.28
2019-02-27T11:47:00.121Z,17.27
2019-02-27T11:48:00.119Z,16.96
2019-02-27T11:49:02.976Z,17.10
2019-02-27T11:50:00.238Z,16.56
2019-02-27T11:51:00.124Z,15.53
2019-02-27T11:52:00.179Z,15.20
2019-02-27T11:53:02.801Z,15.09
2019-02-27T11:54:00.150Z,15.45
2019-02-27T11:55:00.319Z,15.57
2019-02-27T11:56:00.192Z,15.70
2019-02-27T11:57:00.179Z,15.87
2019-02-27T11:58:04.614Z,16.34
2019-02-27T11:59:00.173Z,16.34
2019-02-27T12:00:00.345Z,16.38
2019-02-27T12:01:00.211Z,16.73
2019-02-27T12:02:00.203Z,16.77
2019-02-27T12:03:00.233Z,16.59
2019-02-27T12:04:00.201Z,16.35
2019-02-27T12:05:00.232Z,15.39
2019-02-27T12:06:00.242Z,14.85
2019-02-27T12:07:00.044Z,14.93
2019-02-27T12:08:00.064Z,15.36
2019-02-27T12:09:00.341Z,15.46
2019-02-27T12:10:00.055Z,15.86
2019-02-27T12:11:00.079Z,16.08
2019-02-27T12:12:00.083Z,15.31
2019-02-27T12:13:01.171Z,16.55
2019-02-27T12:14:00.117Z,15.55
2019-02-27T12:15:00.293Z,15.82
2019-02-27T12:16:00.120Z,15.93
2019-02-27T12:17:00.103Z,15.70
2019-02-27T12:18:01.409Z,15.98
2019-02-27T12:19:00.128Z,15.51
2019-02-27T12:20:00.231Z,15.20
2019-02-27T12:21:00.348Z,16.26
2019-02-27T12:22:00.411Z,17.10
2019-02-27T12:23:00.157Z,17.70
2019-02-27T12:24:00.168Z,17.85
2019-02-27T12:25:00.281Z,17.48
2019-02-27T12:26:02.488Z,17.71
2019-02-27T12:27:00.174Z,17.80
2019-02-27T12:28:00.178Z,16.94
2019-02-27T12:29:00.209Z,17.65
2019-02-27T12:30:02.635Z,16.97
2019-02-27T12:31:00.231Z,17.31
2019-02-27T12:32:00.257Z,18.23
2019-02-27T12:33:00.261Z,17.81
2019-02-27T12:34:02.735Z,17.78
2019-02-27T12:35:00.281Z,17.40
2019-02-27T12:36:00.253Z,18.10
2019-02-27T12:37:00.286Z,17.98
2019-02-27T12:38:00.289Z,18.02
2019-02-27T12:39:00.282Z,18.23
2019-02-27T12:40:00.085Z,17.43
2019-02-27T12:41:00.082Z,17.51
2019-02-27T12:42:00.163Z,17.87
2019-02-27T12:43:00.123Z,17.88
2019-02-27T12:44:00.121Z,17.60
2019-02-27T12:45:00.231Z,17.36
2019-02-27T12:46:01.036Z,17.29
2019-02-27T12:47:00.118Z,15.34
2019-02-27T12:48:00.142Z,15.68
2019-02-27T12:49:00.164Z,16.11
2019-02-27T12:50:00.247Z,15.90
2019-02-27T12:51:03.413Z,16.43
2019-02-27T12:52:00.162Z,17.00
2019-02-27T12:53:00.198Z,17.20
2019-02-27T12:54:00.177Z,16.72
2019-02-27T12:55:01.793Z,16.83
2019-02-27T12:56:00.202Z,16.83
2019-02-27T12:57:00.185Z,17.54
2019-02-27T12:58:00.232Z,17.47
2019-02-27T12:59:00.251Z,17.76
2019-02-27T13:00:00.268Z,16.67
2019-02-27T13:01:00.224Z,17.17
2019-02-27T13:02:08.072Z,17.79
2019-02-27T13:03:00.270Z,17.76
2019-02-27T13:04:00.289Z,17.58
2019-02-27T13:05:00.294Z,17.62
2019-02-27T13:06:00.890Z,17.46
2019-02-27T13:07:00.256Z,16.13
2019-02-27T13:08:00.285Z,16.09
2019-02-27T13:09:00.290Z,16.29
2019-02-27T13:10:00.311Z,16.35